createdAt,value
2023-01-18T00:02:38.471Z,3.63
2023-01-18T00:07:39.936Z,3.35
2023-01-18T00:12:41.432Z,3.90
2023-01-18T00:17:51.858Z,4.13
2023-01-18T00:22:53.401Z,2.90
2023-01-18T00:27:55.377Z,3.15
2023-01-18T00:32:58.487Z,2.88
2023-01-18T00:38:00.223Z,2.88
2023-01-18T00:43:20.359Z,2.80
2023-01-18T00:48:21.830Z,2.30
2023-01-18T00:53:23.574Z,1.85
2023-01-18T00:58:25.239Z,1.45
2023-01-18T01:03:26.772Z,1.48
2023-01-18T01:08:28.363Z,0.98
2023-01-18T01:13:48.558Z,0.82
2023-01-18T01:19:08.730Z,0.90
2023-01-18T01:24:28.465Z,0.60
2023-01-18T01:29:29.952Z,0.33
2023-01-18T01:34:31.902Z,0.70
2023-01-18T01:39:33.452Z,0.50
2023-01-18T01:44:34.913Z,0.50
2023-01-18T01:49:40.162Z,0.30
2023-01-18T01:54:42.092Z,0.50
2023-01-18T01:59:46.927Z,0.28
2023-01-18T02:04:53.641Z,0.25
2023-01-18T02:09:55.800Z,0.45
2023-01-18T02:14:58.497Z,0.28
2023-01-18T02:20:28.117Z,0.22
2023-01-18T02:25:44.672Z,0.20
2023-01-18T02:31:04.800Z,0.30
2023-01-18T02:36:06.495Z,0.38
2023-01-18T02:41:16.258Z,0.22
2023-01-18T02:46:34.165Z,0.30
2023-01-18T02:51:36.377Z,0.20
2023-01-18T02:56:42.629Z,0.20
2023-01-18T03:01:47.040Z,0.20
2023-01-18T03:06:51.632Z,0.10
2023-01-18T03:11:59.307Z,0.15
2023-01-18T03:17:11.063Z,0.20
2023-01-18T03:22:12.690Z,0.10
2023-01-18T03:27:32.886Z,0.30
2023-01-18T03:32:53.235Z,0.15
2023-01-18T03:37:56.213Z,0.10
2023-01-18T03:43:03.828Z,0.30
2023-01-18T03:48:06.652Z,0.40
2023-01-18T03:53:12.771Z,0.00
2023-01-18T03:58:16.772Z,0.03
2023-01-18T04:03:18.246Z,0.20
2023-01-18T04:08:22.047Z,0.28
2023-01-18T04:13:23.546Z,0.20
2023-01-18T04:18:25.973Z,0.30
2023-01-18T04:23:27.826Z,0.22
2023-01-18T04:28:29.308Z,0.35
2023-01-18T04:33:30.804Z,0.40
2023-01-18T04:38:32.346Z,0.22
2023-01-18T04:43:33.905Z,0.20
2023-01-18T04:48:35.566Z,0.70
2023-01-18T04:53:37.466Z,0.57
2023-01-18T04:58:38.944Z,0.73
2023-01-18T05:03:41.445Z,0.55
2023-01-18T05:08:43.189Z,0.45
2023-01-18T05:13:44.735Z,0.60
2023-01-18T05:18:46.277Z,0.30
2023-01-18T05:23:47.837Z,1.33
2023-01-18T05:28:49.761Z,0.93
2023-01-18T05:33:51.313Z,1.73
2023-01-18T05:38:52.893Z,1.60
2023-01-18T05:43:54.394Z,0.60
2023-01-18T05:48:56.960Z,0.47
2023-01-18T05:53:58.491Z,0.60
2023-01-18T05:58:59.975Z,0.82
2023-01-18T06:04:01.617Z,0.50
2023-01-18T06:09:03.540Z,0.45
2023-01-18T06:14:05.056Z,0.57
2023-01-18T06:19:06.538Z,0.82
2023-01-18T06:24:08.108Z,0.68
2023-01-18T06:29:09.606Z,1.05
2023-01-18T06:34:11.276Z,0.98
2023-01-18T06:39:13.266Z,0.50
2023-01-18T06:44:14.997Z,0.60
2023-01-18T06:49:17.068Z,0.47
2023-01-18T06:54:18.933Z,0.40
2023-01-18T06:59:20.442Z,0.60
2023-01-18T07:04:22.030Z,0.77
2023-01-18T07:09:24.097Z,0.52
2023-01-18T07:14:25.691Z,0.38
2023-01-18T07:19:27.214Z,0.60
2023-01-18T07:24:28.947Z,0.30
2023-01-18T07:29:30.630Z,0.30
2023-01-18T07:34:32.164Z,0.35
2023-01-18T07:39:33.634Z,0.25
2023-01-18T07:44:35.118Z,0.30
2023-01-18T07:49:36.686Z,0.50
2023-01-18T07:54:38.521Z,0.30
2023-01-18T07:59:39.991Z,0.25
2023-01-18T08:04:41.950Z,0.20
2023-01-18T08:09:43.894Z,0.40
2023-01-18T08:14:45.963Z,0.35
2023-01-18T08:19:47.577Z,0.40
2023-01-18T08:24:49.118Z,0.28
2023-01-18T08:29:50.596Z,0.30
2023-01-18T08:34:52.066Z,0.30
2023-01-18T08:39:53.648Z,0.47
2023-01-18T08:44:55.165Z,0.40
2023-01-18T08:49:56.754Z,0.73
2023-01-18T08:54:58.581Z,0.57
2023-01-18T09:00:00.112Z,0.32
2023-01-18T09:05:01.631Z,0.60
2023-01-18T09:10:03.138Z,0.40
2023-01-18T09:15:04.953Z,0.60
2023-01-18T09:20:10.712Z,0.40
2023-01-18T09:25:12.251Z,0.65
2023-01-18T09:30:16.142Z,0.32
2023-01-18T09:35:18.342Z,0.50
2023-01-18T09:40:20.548Z,0.40
2023-01-18T09:45:29.970Z,0.63
2023-01-18T09:50:34.526Z,0.20
2023-01-18T09:55:42.215Z,0.60
2023-01-18T10:00:47.173Z,0.45
2023-01-18T10:06:08.904Z,0.52
2023-01-18T10:11:23.177Z,0.65
2023-01-18T10:16:25.398Z,0.55
2023-01-18T10:21:37.221Z,0.35
2023-01-18T10:26:38.995Z,0.75
2023-01-18T10:31:40.652Z,0.73
2023-01-18T10:36:44.106Z,0.93
2023-01-18T10:41:45.601Z,0.88
2023-01-18T10:46:47.094Z,0.80
2023-01-18T10:51:49.687Z,0.65
2023-01-18T10:57:01.762Z,0.80
2023-01-18T11:02:05.096Z,0.40
2023-01-18T11:07:06.703Z,0.80
2023-01-18T11:12:37.618Z,0.40
2023-01-18T11:17:39.538Z,0.60
2023-01-18T11:22:53.173Z,0.73
2023-01-18T11:28:01.220Z,0.52
2023-01-18T11:33:03.015Z,0.30
2023-01-18T11:38:09.038Z,0.40
2023-01-18T11:43:19.457Z,0.40
2023-01-18T11:48:20.944Z,0.35
2023-01-18T11:53:41.623Z,0.40
2023-01-18T11:58:43.120Z,0.50
2023-01-18T12:03:47.727Z,0.60
2023-01-18T12:08:59.100Z,0.40
2023-01-18T12:14:01.684Z,0.50
2023-01-18T12:19:03.154Z,0.55
2023-01-18T12:24:07.522Z,0.47
2023-01-18T12:29:24.284Z,0.38
2023-01-18T12:34:42.125Z,0.60
2023-01-18T12:39:58.700Z,0.30
2023-01-18T12:45:05.867Z,0.30
2023-01-18T12:50:14.326Z,0.93
2023-01-18T12:55:21.172Z,0.52
2023-01-18T13:00:47.123Z,0.43
2023-01-18T13:05:52.656Z,0.50
2023-01-18T13:10:56.672Z,0.50
2023-01-18T13:16:16.989Z,0.55
2023-01-18T13:21:27.631Z,0.32
2023-01-18T13:26:30.824Z,0.52
2023-01-18T13:31:32.454Z,0.52
2023-01-18T13:36:44.728Z,0.45
2023-01-18T13:42:04.605Z,0.25
2023-01-18T13:47:35.911Z,0.63
2023-01-18T13:52:42.284Z,0.35
2023-01-18T13:57:52.983Z,0.40
2023-01-18T14:03:03.632Z,0.47
2023-01-18T14:08:05.787Z,0.50
2023-01-18T14:13:08.668Z,0.52
2023-01-18T14:18:19.321Z,0.60
2023-01-18T14:23:41.112Z,0.60
2023-01-18T14:28:45.437Z,0.82
2023-01-18T14:33:47.090Z,0.35
2023-01-18T14:39:06.773Z,0.40
2023-01-18T14:44:13.934Z,0.60
2023-01-18T14:49:17.030Z,0.60
2023-01-18T14:54:19.271Z,0.43
2023-01-18T14:59:24.535Z,0.70
2023-01-18T15:04:39.106Z,0.70
2023-01-18T15:09:42.350Z,0.52
2023-01-18T15:14:44.954Z,0.60
2023-01-18T15:19:46.928Z,0.57
2023-01-18T15:24:48.471Z,0.82
2023-01-18T15:29:53.883Z,0.55
2023-01-18T15:34:56.566Z,0.40
2023-01-18T15:39:58.343Z,1.08
2023-01-18T15:45:00.135Z,0.82
2023-01-18T15:50:02.164Z,0.60
2023-01-18T15:55:06.595Z,0.68
2023-01-18T16:00:25.863Z,0.88
2023-01-18T16:05:27.786Z,0.60
2023-01-18T16:10:30.498Z,0.70
2023-01-18T16:15:32.133Z,0.35
2023-01-18T16:20:34.446Z,0.60
2023-01-18T16:25:36.832Z,0.88
2023-01-18T16:30:39.317Z,0.73
2023-01-18T16:35:42.045Z,0.60
2023-01-18T16:40:45.077Z,1.30
2023-01-18T16:45:48.591Z,0.82
2023-01-18T16:50:50.594Z,0.98
2023-01-18T16:55:52.409Z,0.98
2023-01-18T17:00:58.823Z,0.70
2023-01-18T17:06:00.428Z,0.57
2023-01-18T17:11:01.899Z,0.68
2023-01-18T17:16:03.523Z,0.50
2023-01-18T17:21:05.088Z,0.82
2023-01-18T17:26:07.689Z,0.90
2023-01-18T17:31:09.415Z,0.50
2023-01-18T17:36:10.967Z,1.05
2023-01-18T17:41:22.946Z,0.57
2023-01-18T17:46:28.595Z,0.73
2023-01-18T17:51:30.237Z,0.88
2023-01-18T17:56:32.913Z,0.70
2023-01-18T18:01:34.477Z,0.63
2023-01-18T18:06:38.205Z,0.70
2023-01-18T18:11:42.027Z,0.60
2023-01-18T18:16:44.101Z,0.75
2023-01-18T18:21:45.994Z,0.80
2023-01-18T18:26:47.531Z,0.73
2023-01-18T18:31:48.982Z,1.05
2023-01-18T18:36:50.646Z,0.70
2023-01-18T18:41:53.019Z,1.17
2023-01-18T18:46:54.633Z,0.80
2023-01-18T18:51:56.600Z,1.45
2023-01-18T18:57:00.157Z,0.68
2023-01-18T19:02:01.704Z,1.02
2023-01-18T19:07:03.210Z,0.90
2023-01-18T19:12:04.834Z,1.00
2023-01-18T19:17:06.860Z,1.27
2023-01-18T19:22:08.951Z,2.78
2023-01-18T19:27:10.924Z,2.03
2023-01-18T19:32:12.510Z,2.20
2023-01-18T19:37:13.994Z,1.70
2023-01-18T19:42:15.620Z,1.80
2023-01-18T19:47:17.082Z,1.80
2023-01-18T19:52:18.652Z,1.40
2023-01-18T19:57:20.163Z,1.27
2023-01-18T20:02:22.649Z,1.45
2023-01-18T20:07:24.226Z,1.10
2023-01-18T20:12:29.269Z,0.98
2023-01-18T20:17:30.869Z,0.80
2023-01-18T20:22:32.374Z,0.65
2023-01-18T20:27:33.870Z,0.70
2023-01-18T20:32:35.758Z,0.80
2023-01-18T20:37:37.286Z,0.95
2023-01-18T20:42:38.780Z,0.80
2023-01-18T20:47:40.318Z,0.85
2023-01-18T20:52:42.081Z,0.77
2023-01-18T20:57:43.564Z,0.60
2023-01-18T21:02:45.529Z,0.60
2023-01-18T21:07:47.047Z,0.73
2023-01-18T21:12:49.203Z,0.60
2023-01-18T21:17:51.498Z,0.80
2023-01-18T21:22:52.946Z,0.65
2023-01-18T21:27:54.602Z,0.65
2023-01-18T21:32:56.735Z,0.57
2023-01-18T21:38:00.598Z,0.63
2023-01-18T21:43:20.881Z,0.70
2023-01-18T21:48:26.282Z,0.75
2023-01-18T21:53:46.211Z,0.70
2023-01-18T21:58:53.562Z,1.20
2023-01-18T22:04:14.083Z,2.00
2023-01-18T22:09:15.645Z,2.38
2023-01-18T22:14:17.108Z,1.85
2023-01-18T22:19:21.284Z,1.30
2023-01-18T22:24:22.765Z,1.10
2023-01-18T22:29:24.302Z,0.82
2023-01-18T22:34:25.817Z,0.98
2023-01-18T22:39:27.302Z,0.50
2023-01-18T22:44:28.776Z,0.60
2023-01-18T22:49:30.534Z,0.98
2023-01-18T22:54:32.129Z,0.82
2023-01-18T22:59:33.611Z,0.88
2023-01-18T23:04:35.092Z,0.47
2023-01-18T23:09:36.597Z,0.75
2023-01-18T23:14:56.646Z,0.63
2023-01-18T23:19:58.206Z,0.82
2023-01-18T23:24:59.686Z,0.75
2023-01-18T23:30:02.625Z,0.68
2023-01-18T23:35:04.851Z,0.93
2023-01-18T23:40:25.095Z,0.70
2023-01-18T23:45:45.341Z,0.52
2023-01-18T23:51:05.587Z,0.47
2023-01-18T23:56:07.280Z,0.68
